sensor_id;sensor_type;location;lat;lon;timestamp;pressure;altitude;pressure_sealevel;temperature;humidity
64628;BME280;68467;50.960;0.314;2023-07-29T00:00:45;99022.94;;;16.24;100.00
64628;BME280;68467;50.960;0.314;2023-07-29T00:03:12;99021.13;;;16.46;100.00
64628;BME280;68467;50.960;0.314;2023-07-29T00:05:40;99025.26;;;16.84;100.00
64628;BME280;68467;50.960;0.314;2023-07-29T00:08:07;99027.07;;;16.38;100.00
64628;BME280;68467;50.960;0.314;2023-07-29T00:10:36;99022.32;;;16.51;100.00
64628;BME280;68467;50.960;0.314;2023-07-29T00:13:04;99016.74;;;16.53;100.00
64628;BME280;68467;50.960;0.314;2023-07-29T00:15:31;99016.75;;;15.46;100.00
64628;BME280;68467;50.960;0.314;2023-07-29T00:17:59;99012.54;;;15.91;100.00
64628;BME280;68467;50.960;0.314;2023-07-29T00:20:26;99008.04;;;16.51;100.00
64628;BME280;68467;50.960;0.314;2023-07-29T00:22:53;99013.48;;;16.08;100.00
64628;BME280;68467;50.960;0.314;2023-07-29T00:25:21;99016.94;;;16.33;100.00
64628;BME280;68467;50.960;0.314;2023-07-29T00:27:49;99014.49;;;16.09;100.00
64628;BME280;68467;50.960;0.314;2023-07-29T00:30:17;99011.17;;;16.27;100.00
64628;BME280;68467;50.960;0.314;2023-07-29T00:32:44;99014.19;;;16.80;100.00
64628;BME280;68467;50.960;0.314;2023-07-29T00:35:12;99014.39;;;16.40;100.00
64628;BME280;68467;50.960;0.314;2023-07-29T00:37:39;99012.05;;;15.94;100.00
64628;BME280;68467;50.960;0.314;2023-07-29T00:40:15;99011.86;;;15.71;100.00
64628;BME280;68467;50.960;0.314;2023-07-29T00:42:46;99014.09;;;15.48;100.00
64628;BME280;68467;50.960;0.314;2023-07-29T00:45:13;99012.60;;;15.97;100.00
64628;BME280;68467;50.960;0.314;2023-07-29T00:47:41;99008.94;;;15.98;100.00
64628;BME280;68467;50.960;0.314;2023-07-29T00:50:09;99011.99;;;16.42;100.00
64628;BME280;68467;50.960;0.314;2023-07-29T00:52:38;99019.09;;;16.36;100.00
64628;BME280;68467;50.960;0.314;2023-07-29T00:55:06;99009.94;;;15.69;100.00
64628;BME280;68467;50.960;0.314;2023-07-29T00:57:35;99004.43;;;16.01;100.00
64628;BME280;68467;50.960;0.314;2023-07-29T01:00:03;98998.35;;;15.75;100.00
64628;BME280;68467;50.960;0.314;2023-07-29T01:02:31;99005.62;;;16.05;100.00
64628;BME280;68467;50.960;0.314;2023-07-29T01:04:58;98995.25;;;16.21;100.00
64628;BME280;68467;50.960;0.314;2023-07-29T01:07:32;98990.31;;;16.20;100.00
64628;BME280;68467;50.960;0.314;2023-07-29T01:10:03;98997.06;;;16.08;100.00
64628;BME280;68467;50.960;0.314;2023-07-29T01:12:39;99001.37;;;15.95;100.00
64628;BME280;68467;50.960;0.314;2023-07-29T01:15:12;99007.38;;;15.85;100.00
64628;BME280;68467;50.960;0.314;2023-07-29T01:17:43;99009.27;;;16.09;100.00
64628;BME280;68467;50.960;0.314;2023-07-29T01:20:14;99005.15;;;16.31;100.00
64628;BME280;68467;50.960;0.314;2023-07-29T01:22:42;99008.02;;;15.33;100.00
64628;BME280;68467;50.960;0.314;2023-07-29T01:25:10;98997.95;;;15.77;100.00
64628;BME280;68467;50.960;0.314;2023-07-29T01:27:37;98993.58;;;16.06;100.00
64628;BME280;68467;50.960;0.314;2023-07-29T01:30:06;98987.98;;;16.30;100.00
64628;BME280;68467;50.960;0.314;2023-07-29T01:32:39;98987.08;;;16.42;100.00
64628;BME280;68467;50.960;0.314;2023-07-29T01:35:15;98986.58;;;16.32;100.00
64628;BME280;68467;50.960;0.314;2023-07-29T01:37:49;98987.32;;;16.83;100.00
64628;BME280;68467;50.960;0.314;2023-07-29T01:40:18;98983.29;;;17.01;100.00
64628;BME280;68467;50.960;0.314;2023-07-29T01:42:47;98981.92;;;16.34;100.00
64628;BME280;68467;50.960;0.314;2023-07-29T01:45:14;98976.78;;;16.44;100.00
64628;BME280;68467;50.960;0.314;2023-07-29T01:47:41;98978.33;;;16.62;100.00
64628;BME280;68467;50.960;0.314;2023-07-29T01:50:10;98977.76;;;16.60;100.00
64628;BME280;68467;50.960;0.314;2023-07-29T01:52:37;98979.61;;;15.99;100.00
64628;BME280;68467;50.960;0.314;2023-07-29T01:55:05;98978.20;;;15.31;100.00
64628;BME280;68467;50.960;0.314;2023-07-29T01:57:32;98974.05;;;16.09;100.00
64628;BME280;68467;50.960;0.314;2023-07-29T01:59:59;98981.18;;;16.50;100.00
64628;BME280;68467;50.960;0.314;2023-07-29T02:02:26;98981.14;;;16.49;100.00
64628;BME280;68467;50.960;0.314;2023-07-29T02:04:53;98981.15;;;16.00;100.00
64628;BME280;68467;50.960;0.314;2023-07-29T02:07:20;98981.05;;;16.03;100.00
64628;BME280;68467;50.960;0.314;2023-07-29T02:09:47;98979.15;;;15.85;100.00
64628;BME280;68467;50.960;0.314;2023-07-29T02:12:14;98982.97;;;15.58;100.00
64628;BME280;68467;50.960;0.314;2023-07-29T02:14:41;98982.07;;;15.65;100.00
64628;BME280;68467;50.960;0.314;2023-07-29T02:17:08;98984.02;;;15.70;100.00
64628;BME280;68467;50.960;0.314;2023-07-29T02:19:35;98986.30;;;15.59;100.00
64628;BME280;68467;50.960;0.314;2023-07-29T02:22:03;98986.71;;;16.35;100.00
64628;BME280;68467;50.960;0.314;2023-07-29T02:24:30;98985.28;;;16.75;100.00
64628;BME280;68467;50.960;0.314;2023-07-29T02:26:57;98990.29;;;15.98;100.00
64628;BME280;68467;50.960;0.314;2023-07-29T02:29:24;98988.55;;;16.44;100.00
64628;BME280;68467;50.960;0.314;2023-07-29T02:31:51;98982.92;;;16.40;100.00
64628;BME280;68467;50.960;0.314;2023-07-29T02:34:18;98982.32;;;16.01;100.00
64628;BME280;68467;50.960;0.314;2023-07-29T02:36:45;98977.82;;;16.45;100.00
64628;BME280;68467;50.960;0.314;2023-07-29T02:39:12;98977.53;;;15.89;100.00
64628;BME280;68467;50.960;0.314;2023-07-29T02:41:38;98971.87;;;16.13;100.00
64628;BME280;68467;50.960;0.314;2023-07-29T02:44:05;98968.95;;;16.51;100.00
64628;BME280;68467;50.960;0.314;2023-07-29T02:46:32;98964.50;;;16.68;100.00
64628;BME280;68467;50.960;0.314;2023-07-29T02:49:01;98964.30;;;16.92;100.00
64628;BME280;68467;50.960;0.314;2023-07-29T02:51:29;98968.37;;;16.45;100.00
64628;BME280;68467;50.960;0.314;2023-07-29T02:53:56;98965.78;;;16.74;100.00
64628;BME280;68467;50.960;0.314;2023-07-29T02:56:24;98964.98;;;16.13;100.00
64628;BME280;68467;50.960;0.314;2023-07-29T02:58:52;98963.86;;;16.37;100.00
64628;BME280;68467;50.960;0.314;2023-07-29T03:01:19;98961.94;;;16.25;100.00
64628;BME280;68467;50.960;0.314;2023-07-29T03:03:47;98961.45;;;16.24;100.00
64628;BME280;68467;50.960;0.314;2023-07-29T03:06:14;98953.53;;;16.05;100.00
64628;BME280;68467;50.960;0.314;2023-07-29T03:08:41;98955.71;;;16.11;100.00
64628;BME280;68467;50.960;0.314;2023-07-29T03:11:10;98951.53;;;15.75;100.00
64628;BME280;68467;50.960;0.314;2023-07-29T03:13:38;98952.43;;;16.35;100.00
64628;BME280;68467;50.960;0.314;2023-07-29T03:16:06;98951.31;;;17.15;100.00
64628;BME280;68467;50.960;0.314;2023-07-29T03:18:33;98954.49;;;16.72;100.00
64628;BME280;68467;50.960;0.314;2023-07-29T03:21:01;98955.78;;;16.91;100.00
64628;BME280;68467;50.960;0.314;2023-07-29T03:23:30;98957.71;;;16.53;100.00
64628;BME280;68467;50.960;0.314;2023-07-29T03:25:58;98959.38;;;16.46;100.00
64628;BME280;68467;50.960;0.314;2023-07-29T03:28:27;98959.98;;;17.21;100.00
64628;BME280;68467;50.960;0.314;2023-07-29T03:30:55;98954.15;;;16.61;100.00
64628;BME280;68467;50.960;0.314;2023-07-29T03:33:22;98949.59;;;16.86;100.00
64628;BME280;68467;50.960;0.314;2023-07-29T03:35:50;98949.58;;;16.81;100.00
64628;BME280;68467;50.960;0.314;2023-07-29T03:38:17;98956.87;;;16.61;100.00
64628;BME280;68467;50.960;0.314;2023-07-29T03:40:44;98954.91;;;16.21;100.00
64628;BME280;68467;50.960;0.314;2023-07-29T03:43:12;98958.12;;;15.88;100.00
64628;BME280;68467;50.960;0.314;2023-07-29T03:45:40;98955.93;;;16.70;100.00
64628;BME280;68467;50.960;0.314;2023-07-29T03:48:08;98957.26;;;16.13;100.00
64628;BME280;68467;50.960;0.314;2023-07-29T03:50:36;98957.72;;;16.17;100.00
64628;BME280;68467;50.960;0.314;2023-07-29T03:53:04;98964.16;;;16.03;100.00
64628;BME280;68467;50.960;0.314;2023-07-29T03:55:32;98958.64;;;16.87;100.00
64628;BME280;68467;50.960;0.314;2023-07-29T03:57:59;98964.31;;;16.14;100.00
64628;BME280;68467;50.960;0.314;2023-07-29T04:00:27;98966.57;;;15.88;100.00
64628;BME280;68467;50.960;0.314;2023-07-29T04:02:54;98963.22;;;16.30;100.00
64628;BME280;68467;50.960;0.314;2023-07-29T04:05:21;98962.72;;;15.67;100.00
64628;BME280;68467;50.960;0.314;2023-07-29T04:07:48;98965.35;;;15.20;100.00
64628;BME280;68467;50.960;0.314;2023-07-29T04:10:15;98965.48;;;16.16;100.00
64628;BME280;68467;50.960;0.314;2023-07-29T04:12:43;98969.31;;;16.19;100.00
64628;BME280;68467;50.960;0.314;2023-07-29T04:15:10;98970.80;;;15.93;100.00
64628;BME280;68467;50.960;0.314;2023-07-29T04:17:37;98963.79;;;16.27;100.00
64628;BME280;68467;50.960;0.314;2023-07-29T04:20:06;98966.74;;;15.63;100.00
64628;BME280;68467;50.960;0.314;2023-07-29T04:22:34;98963.64;;;15.95;100.00
64628;BME280;68467;50.960;0.314;2023-07-29T04:25:02;98962.43;;;16.85;100.00
64628;BME280;68467;50.960;0.314;2023-07-29T04:27:30;98958.45;;;15.72;100.00
64628;BME280;68467;50.960;0.314;2023-07-29T04:29:57;98956.16;;;16.42;100.00
64628;BME280;68467;50.960;0.314;2023-07-29T04:32:24;98962.37;;;16.22;100.00
64628;BME280;68467;50.960;0.314;2023-07-29T04:34:51;98965.85;;;16.29;100.00
64628;BME280;68467;50.960;0.314;2023-07-29T04:37:18;98965.99;;;16.37;100.00
64628;BME280;68467;50.960;0.314;2023-07-29T04:39:45;98963.74;;;16.14;100.00
64628;BME280;68467;50.960;0.314;2023-07-29T04:42:12;98970.85;;;16.16;100.00
64628;BME280;68467;50.960;0.314;2023-07-29T04:44:39;98977.80;;;15.75;100.00
64628;BME280;68467;50.960;0.314;2023-07-29T04:47:06;98975.35;;;15.44;100.00
64628;BME280;68467;50.960;0.314;2023-07-29T04:49:34;98976.38;;;15.41;100.00
64628;BME280;68467;50.960;0.314;2023-07-29T04:52:00;98976.56;;;15.78;100.00
64628;BME280;68467;50.960;0.314;2023-07-29T04:54:28;98975.33;;;15.65;100.00
64628;BME280;68467;50.960;0.314;2023-07-29T04:56:55;98974.03;;;16.48;100.00
64628;BME280;68467;50.960;0.314;2023-07-29T04:59:22;98970.61;;;16.76;100.00
64628;BME280;68467;50.960;0.314;2023-07-29T05:01:49;98977.43;;;16.39;100.00
64628;BME280;68467;50.960;0.314;2023-07-29T05:04:16;98973.06;;;16.26;100.00
64628;BME280;68467;50.960;0.314;2023-07-29T05:06:44;98973.53;;;15.60;100.00
64628;BME280;68467;50.960;0.314;2023-07-29T05:09:13;98977.78;;;15.56;100.00
64628;BME280;68467;50.960;0.314;2023-07-29T05:11:40;98972.89;;;15.82;100.00
64628;BME280;68467;50.960;0.314;2023-07-29T05:14:07;98969.22;;;15.81;100.00
64628;BME280;68467;50.960;0.314;2023-07-29T05:16:34;98980.58;;;15.81;100.00
64628;BME280;68467;50.960;0.314;2023-07-29T05:19:01;98977.04;;;15.98;100.00
64628;BME280;68467;50.960;0.314;2023-07-29T05:21:28;98962.71;;;16.29;100.00
64628;BME280;68467;50.960;0.314;2023-07-29T05:23:55;98964.15;;;16.37;100.00
64628;BME280;68467;50.960;0.314;2023-07-29T05:26:23;98972.27;;;15.29;100.00
64628;BME280;68467;50.960;0.314;2023-07-29T05:28:50;98975.14;;;15.92;100.00
64628;BME280;68467;50.960;0.314;2023-07-29T05:31:17;98968.84;;;15.92;100.00
64628;BME280;68467;50.960;0.314;2023-07-29T05:33:45;98969.02;;;16.40;100.00
64628;BME280;68467;50.960;0.314;2023-07-29T05:36:11;98978.17;;;15.58;100.00
64628;BME280;68467;50.960;0.314;2023-07-29T05:38:38;98984.21;;;16.25;100.00
64628;BME280;68467;50.960;0.314;2023-07-29T05:41:05;98975.14;;;16.38;100.00
64628;BME280;68467;50.960;0.314;2023-07-29T05:43:32;98975.57;;;16.25;100.00
64628;BME280;68467;50.960;0.314;2023-07-29T05:45:59;98970.40;;;16.55;100.00
64628;BME280;68467;50.960;0.314;2023-07-29T05:48:27;98973.04;;;16.14;100.00
64628;BME280;68467;50.960;0.314;2023-07-29T05:50:54;98977.63;;;16.06;100.00
64628;BME280;68467;50.960;0.314;2023-07-29T05:53:21;98983.57;;;16.21;100.00
64628;BME280;68467;50.960;0.314;2023-07-29T05:55:48;98977.99;;;15.64;100.00
64628;BME280;68467;50.960;0.314;2023-07-29T05:58:15;98977.72;;;16.12;100.00
64628;BME280;68467;50.960;0.314;2023-07-29T06:00:42;98976.57;;;16.55;100.00
64628;BME280;68467;50.960;0.314;2023-07-29T06:03:10;98973.22;;;16.17;100.00
64628;BME280;68467;50.960;0.314;2023-07-29T06:05:37;98971.09;;;16.65;100.00
64628;BME280;68467;50.960;0.314;2023-07-29T06:08:04;98971.73;;;16.59;100.00
64628;BME280;68467;50.960;0.314;2023-07-29T06:10:31;98971.29;;;16.69;100.00
64628;BME280;68467;50.960;0.314;2023-07-29T06:12:58;98973.19;;;16.78;100.00
64628;BME280;68467;50.960;0.314;2023-07-29T06:15:30;98976.37;;;16.81;100.00
64628;BME280;68467;50.960;0.314;2023-07-29T06:17:57;98974.51;;;16.83;100.00
64628;BME280;68467;50.960;0.314;2023-07-29T06:20:24;98975.06;;;15.82;100.00
64628;BME280;68467;50.960;0.314;2023-07-29T06:22:52;98965.37;;;16.29;100.00
64628;BME280;68467;50.960;0.314;2023-07-29T06:25:19;98967.52;;;16.19;100.00
64628;BME280;68467;50.960;0.314;2023-07-29T06:27:46;98973.84;;;16.08;100.00
64628;BME280;68467;50.960;0.314;2023-07-29T06:30:13;98979.99;;;16.19;100.00
64628;BME280;68467;50.960;0.314;2023-07-29T06:32:40;98982.51;;;16.30;100.00
64628;BME280;68467;50.960;0.314;2023-07-29T06:35:07;98983.81;;;16.44;100.00
64628;BME280;68467;50.960;0.314;2023-07-29T06:37:35;98982.38;;;16.52;100.00
64628;BME280;68467;50.960;0.314;2023-07-29T06:40:02;98984.47;;;15.98;100.00
64628;BME280;68467;50.960;0.314;2023-07-29T06:42:29;98984.31;;;16.00;100.00
64628;BME280;68467;50.960;0.314;2023-07-29T06:44:57;98985.90;;;16.83;100.00
64628;BME280;68467;50.960;0.314;2023-07-29T06:47:24;98987.26;;;16.62;100.00
64628;BME280;68467;50.960;0.314;2023-07-29T06:49:51;98987.21;;;16.65;100.00
64628;BME280;68467;50.960;0.314;2023-07-29T06:52:18;98988.65;;;16.75;100.00
64628;BME280;68467;50.960;0.314;2023-07-29T06:54:45;98987.47;;;17.20;100.00
64628;BME280;68467;50.960;0.314;2023-07-29T06:57:12;98981.74;;;16.86;100.00
64628;BME280;68467;50.960;0.314;2023-07-29T06:59:39;98990.89;;;17.18;100.00
64628;BME280;68467;50.960;0.314;2023-07-29T07:02:07;98988.00;;;17.43;100.00
64628;BME280;68467;50.960;0.314;2023-07-29T07:04:34;98990.82;;;17.12;100.00
64628;BME280;68467;50.960;0.314;2023-07-29T07:07:01;98988.82;;;17.37;100.00
64628;BME280;68467;50.960;0.314;2023-07-29T07:09:28;98991.81;;;16.85;100.00
64628;BME280;68467;50.960;0.314;2023-07-29T07:11:55;98991.45;;;17.22;100.00
64628;BME280;68467;50.960;0.314;2023-07-29T07:14:22;98989.17;;;17.37;100.00
64628;BME280;68467;50.960;0.314;2023-07-29T07:16:49;98991.22;;;17.13;100.00
64628;BME280;68467;50.960;0.314;2023-07-29T07:19:16;98990.22;;;17.45;100.00
64628;BME280;68467;50.960;0.314;2023-07-29T07:21:43;98995.69;;;17.36;100.00
64628;BME280;68467;50.960;0.314;2023-07-29T07:24:10;98994.34;;;17.47;100.00
64628;BME280;68467;50.960;0.314;2023-07-29T07:26:38;98996.48;;;17.47;100.00
64628;BME280;68467;50.960;0.314;2023-07-29T07:29:05;98990.74;;;16.78;100.00
64628;BME280;68467;50.960;0.314;2023-07-29T07:31:33;98989.10;;;17.30;100.00
64628;BME280;68467;50.960;0.314;2023-07-29T07:34:01;98993.77;;;16.98;100.00
64628;BME280;68467;50.960;0.314;2023-07-29T07:36:28;98995.51;;;16.69;100.00
64628;BME280;68467;50.960;0.314;2023-07-29T07:38:56;98986.12;;;17.24;100.00
64628;BME280;68467;50.960;0.314;2023-07-29T07:41:22;98989.18;;;17.10;100.00
64628;BME280;68467;50.960;0.314;2023-07-29T07:43:50;98984.78;;;16.90;100.00
64628;BME280;68467;50.960;0.314;2023-07-29T07:46:17;98979.16;;;16.98;100.00
64628;BME280;68467;50.960;0.314;2023-07-29T07:48:44;98990.21;;;16.41;100.00
64628;BME280;68467;50.960;0.314;2023-07-29T07:51:11;98988.95;;;16.52;100.00
64628;BME280;68467;50.960;0.314;2023-07-29T07:53:39;98984.85;;;16.66;100.00
64628;BME280;68467;50.960;0.314;2023-07-29T07:56:06;98989.09;;;17.07;100.00
64628;BME280;68467;50.960;0.314;2023-07-29T07:58:34;98991.38;;;17.15;100.00
64628;BME280;68467;50.960;0.314;2023-07-29T08:01:02;99005.90;;;16.77;100.00
64628;BME280;68467;50.960;0.314;2023-07-29T08:03:30;99000.93;;;17.13;100.00
64628;BME280;68467;50.960;0.314;2023-07-29T08:05:58;98997.45;;;17.34;100.00
64628;BME280;68467;50.960;0.314;2023-07-29T08:08:26;99003.13;;;17.47;100.00
64628;BME280;68467;50.960;0.314;2023-07-29T08:10:54;99005.73;;;17.10;100.00
64628;BME280;68467;50.960;0.314;2023-07-29T08:13:22;99003.28;;;16.65;100.00
64628;BME280;68467;50.960;0.314;2023-07-29T08:15:51;99003.22;;;17.52;100.00
64628;BME280;68467;50.960;0.314;2023-07-29T08:18:19;98999.00;;;17.11;100.00
64628;BME280;68467;50.960;0.314;2023-07-29T08:20:53;98998.56;;;16.70;100.00
64628;BME280;68467;50.960;0.314;2023-07-29T08:23:21;98998.64;;;16.54;100.00
64628;BME280;68467;50.960;0.314;2023-07-29T08:25:53;98996.10;;;16.10;100.00
64628;BME280;68467;50.960;0.314;2023-07-29T08:28:21;98989.45;;;16.32;100.00
64628;BME280;68467;50.960;0.314;2023-07-29T08:30:48;98991.54;;;16.93;100.00
64628;BME280;68467;50.960;0.314;2023-07-29T08:33:15;98984.22;;;16.73;100.00
64628;BME280;68467;50.960;0.314;2023-07-29T08:35:42;98986.33;;;16.77;100.00
64628;BME280;68467;50.960;0.314;2023-07-29T08:38:08;98984.36;;;16.63;100.00
64628;BME280;68467;50.960;0.314;2023-07-29T08:40:38;98979.28;;;16.63;100.00
64628;BME280;68467;50.960;0.314;2023-07-29T08:43:09;98980.36;;;16.75;100.00
64628;BME280;68467;50.960;0.314;2023-07-29T08:45:39;98970.97;;;16.87;100.00
64628;BME280;68467;50.960;0.314;2023-07-29T08:48:09;98967.23;;;17.19;100.00
64628;BME280;68467;50.960;0.314;2023-07-29T08:50:37;98973.47;;;17.05;100.00
64628;BME280;68467;50.960;0.314;2023-07-29T08:53:05;98967.37;;;16.99;100.00
64628;BME280;68467;50.960;0.314;2023-07-29T08:55:33;98971.57;;;17.36;100.00
64628;BME280;68467;50.960;0.314;2023-07-29T08:58:00;98964.19;;;16.93;100.00
64628;BME280;68467;50.960;0.314;2023-07-29T09:00:28;98964.50;;;17.65;100.00
64628;BME280;68467;50.960;0.314;2023-07-29T09:02:55;98962.51;;;18.10;100.00
64628;BME280;68467;50.960;0.314;2023-07-29T09:05:22;98967.84;;;17.41;100.00
64628;BME280;68467;50.960;0.314;2023-07-29T09:07:51;98973.98;;;17.48;100.00
64628;BME280;68467;50.960;0.314;2023-07-29T09:10:22;98964.15;;;18.67;100.00
64628;BME280;68467;50.960;0.314;2023-07-29T09:12:49;98983.77;;;18.05;100.00
64628;BME280;68467;50.960;0.314;2023-07-29T09:15:27;98977.79;;;17.51;100.00
64628;BME280;68467;50.960;0.314;2023-07-29T09:17:55;98979.86;;;17.70;100.00
64628;BME280;68467;50.960;0.314;2023-07-29T09:20:25;98993.34;;;17.25;100.00
64628;BME280;68467;50.960;0.314;2023-07-29T09:22:54;98986.63;;;18.68;100.00
64628;BME280;68467;50.960;0.314;2023-07-29T09:25:23;98987.35;;;17.83;100.00
64628;BME280;68467;50.960;0.314;2023-07-29T09:27:51;98983.86;;;18.12;100.00
64628;BME280;68467;50.960;0.314;2023-07-29T09:30:18;98988.11;;;17.98;100.00
64628;BME280;68467;50.960;0.314;2023-07-29T09:32:46;98983.24;;;18.33;100.00
64628;BME280;68467;50.960;0.314;2023-07-29T09:35:13;98987.85;;;17.46;100.00
64628;BME280;68467;50.960;0.314;2023-07-29T09:37:40;98991.77;;;17.59;100.00
64628;BME280;68467;50.960;0.314;2023-07-29T09:40:14;98993.44;;;17.82;100.00
64628;BME280;68467;50.960;0.314;2023-07-29T09:42:47;98982.36;;;17.89;100.00
64628;BME280;68467;50.960;0.314;2023-07-29T09:45:20;98985.77;;;18.23;100.00
64628;BME280;68467;50.960;0.314;2023-07-29T09:47:48;98981.75;;;18.74;100.00
64628;BME280;68467;50.960;0.314;2023-07-29T09:50:17;98981.21;;;17.91;100.00
64628;BME280;68467;50.960;0.314;2023-07-29T09:52:45;98992.88;;;18.54;100.00
64628;BME280;68467;50.960;0.314;2023-07-29T09:55:13;98993.58;;;18.62;100.00
64628;BME280;68467;50.960;0.314;2023-07-29T09:57:45;98994.73;;;18.56;100.00
64628;BME280;68467;50.960;0.314;2023-07-29T10:00:13;99001.19;;;18.54;100.00
64628;BME280;68467;50.960;0.314;2023-07-29T10:02:41;99001.22;;;18.50;100.00
64628;BME280;68467;50.960;0.314;2023-07-29T10:05:10;99004.74;;;18.15;100.00
64628;BME280;68467;50.960;0.314;2023-07-29T10:07:38;99002.16;;;18.58;100.00
64628;BME280;68467;50.960;0.314;2023-07-29T10:10:08;98996.68;;;19.19;100.00
64628;BME280;68467;50.960;0.314;2023-07-29T10:12:35;99002.72;;;18.84;100.00
64628;BME280;68467;50.960;0.314;2023-07-29T10:15:05;99005.27;;;18.64;100.00
64628;BME280;68467;50.960;0.314;2023-07-29T10:17:35;99007.66;;;18.70;100.00
64628;BME280;68467;50.960;0.314;2023-07-29T10:20:04;99010.95;;;18.40;100.00
64628;BME280;68467;50.960;0.314;2023-07-29T10:22:35;99006.15;;;18.51;100.00
64628;BME280;68467;50.960;0.314;2023-07-29T10:25:04;99004.58;;;19.01;100.00
64628;BME280;68467;50.960;0.314;2023-07-29T10:27:39;99008.52;;;18.61;100.00
64628;BME280;68467;50.960;0.314;2023-07-29T10:30:11;99006.94;;;18.67;100.00
64628;BME280;68467;50.960;0.314;2023-07-29T10:32:38;99008.16;;;19.15;100.00
64628;BME280;68467;50.960;0.314;2023-07-29T10:35:08;99013.30;;;18.94;100.00
64628;BME280;68467;50.960;0.314;2023-07-29T10:37:36;99012.36;;;19.12;100.00
64628;BME280;68467;50.960;0.314;2023-07-29T10:40:07;99007.54;;;19.02;100.00
64628;BME280;68467;50.960;0.314;2023-07-29T10:42:35;99013.44;;;19.02;100.00
64628;BME280;68467;50.960;0.314;2023-07-29T10:45:18;99022.39;;;19.20;100.00
64628;BME280;68467;50.960;0.314;2023-07-29T10:47:45;99014.26;;;19.39;100.00
64628;BME280;68467;50.960;0.314;2023-07-29T10:50:18;99008.67;;;19.50;100.00
64628;BME280;68467;50.960;0.314;2023-07-29T10:52:49;99015.78;;;19.27;100.00
64628;BME280;68467;50.960;0.314;2023-07-29T10:55:26;99020.76;;;19.69;100.00
64628;BME280;68467;50.960;0.314;2023-07-29T10:58:13;99019.49;;;19.29;100.00
64628;BME280;68467;50.960;0.314;2023-07-29T11:00:42;99019.84;;;19.60;100.00
64628;BME280;68467;50.960;0.314;2023-07-29T11:03:12;99020.60;;;19.73;100.00
64628;BME280;68467;50.960;0.314;2023-07-29T11:05:48;99033.24;;;19.37;100.00
64628;BME280;68467;50.960;0.314;2023-07-29T11:08:22;99010.76;;;19.63;100.00
64628;BME280;68467;50.960;0.314;2023-07-29T11:11:07;99020.45;;;19.57;100.00
64628;BME280;68467;50.960;0.314;2023-07-29T11:13:36;99018.78;;;19.72;100.00
64628;BME280;68467;50.960;0.314;2023-07-29T11:16:04;99021.32;;;19.75;100.00
64628;BME280;68467;50.960;0.314;2023-07-29T11:18:34;99027.95;;;19.46;100.00
64628;BME280;68467;50.960;0.314;2023-07-29T11:21:02;99030.69;;;19.59;100.00
64628;BME280;68467;50.960;0.314;2023-07-29T11:23:31;99025.61;;;19.78;100.00
64628;BME280;68467;50.960;0.314;2023-07-29T11:26:00;99014.45;;;19.92;100.00
64628;BME280;68467;50.960;0.314;2023-07-29T11:28:28;99022.40;;;20.02;100.00
64628;BME280;68467;50.960;0.314;2023-07-29T11:30:56;99018.06;;;19.93;100.00
64628;BME280;68467;50.960;0.314;2023-07-29T11:33:25;99018.46;;;19.70;100.00
64628;BME280;68467;50.960;0.314;2023-07-29T11:35:52;99025.92;;;19.88;100.00
64628;BME280;68467;50.960;0.314;2023-07-29T11:38:20;99022.57;;;19.91;100.00
64628;BME280;68467;50.960;0.314;2023-07-29T11:40:58;99032.74;;;19.71;100.00
64628;BME280;68467;50.960;0.314;2023-07-29T11:43:26;99048.18;;;19.55;100.00
64628;BME280;68467;50.960;0.314;2023-07-29T11:45:54;99040.28;;;19.10;100.00
64628;BME280;68467;50.960;0.314;2023-07-29T11:48:30;99029.89;;;19.40;100.00
64628;BME280;68467;50.960;0.314;2023-07-29T11:50:58;99029.01;;;19.71;100.00
64628;BME280;68467;50.960;0.314;2023-07-29T11:53:27;99028.51;;;19.90;100.00
64628;BME280;68467;50.960;0.314;2023-07-29T11:55:55;99025.09;;;20.22;100.00
64628;BME280;68467;50.960;0.314;2023-07-29T11:58:22;99032.20;;;20.42;100.00
64628;BME280;68467;50.960;0.314;2023-07-29T12:00:50;99026.11;;;20.39;100.00
64628;BME280;68467;50.960;0.314;2023-07-29T12:03:17;99035.20;;;20.54;100.00
64628;BME280;68467;50.960;0.314;2023-07-29T12:05:45;99028.31;;;20.09;100.00
64628;BME280;68467;50.960;0.314;2023-07-29T12:08:12;99043.40;;;20.25;100.00
64628;BME280;68467;50.960;0.314;2023-07-29T12:10:40;99050.55;;;19.92;100.00
64628;BME280;68467;50.960;0.314;2023-07-29T12:13:08;99042.05;;;19.71;100.00
64628;BME280;68467;50.960;0.314;2023-07-29T12:15:38;99034.17;;;19.63;100.00
64628;BME280;68467;50.960;0.314;2023-07-29T12:18:06;99042.41;;;19.24;100.00
64628;BME280;68467;50.960;0.314;2023-07-29T12:20:34;99031.26;;;19.44;100.00
64628;BME280;68467;50.960;0.314;2023-07-29T12:23:01;99043.41;;;19.40;100.00
64628;BME280;68467;50.960;0.314;2023-07-29T12:25:29;99040.25;;;19.50;100.00
64628;BME280;68467;50.960;0.314;2023-07-29T12:28:01;99046.66;;;19.55;100.00
64628;BME280;68467;50.960;0.314;2023-07-29T12:30:28;99045.70;;;19.53;100.00
64628;BME280;68467;50.960;0.314;2023-07-29T12:32:55;99050.29;;;19.66;100.00
64628;BME280;68467;50.960;0.314;2023-07-29T12:35:22;99048.87;;;19.87;100.00
64628;BME280;68467;50.960;0.314;2023-07-29T12:37:58;99049.47;;;19.60;100.00
64628;BME280;68467;50.960;0.314;2023-07-29T12:40:26;99048.57;;;19.69;100.00
64628;BME280;68467;50.960;0.314;2023-07-29T12:42:54;99057.84;;;19.27;100.00
64628;BME280;68467;50.960;0.314;2023-07-29T12:45:21;99060.68;;;19.85;100.00
64628;BME280;68467;50.960;0.314;2023-07-29T12:47:48;99058.68;;;19.43;100.00
64628;BME280;68467;50.960;0.314;2023-07-29T12:50:15;99057.65;;;19.49;100.00
64628;BME280;68467;50.960;0.314;2023-07-29T12:52:43;99060.33;;;19.31;100.00
64628;BME280;68467;50.960;0.314;2023-07-29T12:55:10;99060.75;;;20.03;100.00